sensor_id;sensor_type;location;lat;lon;timestamp;P1;durP1;ratioP1;P2;durP2;ratioP2
29026;SDS011;16120;48.608;9.092;2022-12-29T00:02:17;74.30;;;8.20;;
29026;SDS011;16120;48.608;9.092;2022-12-29T00:06:12;69.37;;;5.17;;
29026;SDS011;16120;48.608;9.092;2022-12-29T00:10:09;66.70;;;4.80;;
29026;SDS011;16120;48.608;9.092;2022-12-29T00:14:04;68.03;;;4.90;;
29026;SDS011;16120;48.608;9.092;2022-12-29T00:17:59;68.57;;;4.63;;
29026;SDS011;16120;48.608;9.092;2022-12-29T00:21:54;67.27;;;4.93;;
29026;SDS011;16120;48.608;9.092;2022-12-29T00:25:51;66.68;;;5.00;;
29026;SDS011;16120;48.608;9.092;2022-12-29T00:29:46;67.13;;;4.70;;
29026;SDS011;16120;48.608;9.092;2022-12-29T00:33:41;66.40;;;4.63;;
29026;SDS011;16120;48.608;9.092;2022-12-29T00:37:37;67.57;;;5.37;;
29026;SDS011;16120;48.608;9.092;2022-12-29T00:41:34;67.07;;;4.90;;
29026;SDS011;16120;48.608;9.092;2022-12-29T00:45:29;68.27;;;4.90;;
29026;SDS011;16120;48.608;9.092;2022-12-29T00:49:25;75.63;;;8.50;;
29026;SDS011;16120;48.608;9.092;2022-12-29T00:53:20;67.20;;;4.83;;
29026;SDS011;16120;48.608;9.092;2022-12-29T00:57:16;65.77;;;4.27;;
29026;SDS011;16120;48.608;9.092;2022-12-29T01:01:12;65.10;;;3.80;;
29026;SDS011;16120;48.608;9.092;2022-12-29T01:05:07;65.67;;;3.90;;
29026;SDS011;16120;48.608;9.092;2022-12-29T01:09:02;65.77;;;3.90;;
29026;SDS011;16120;48.608;9.092;2022-12-29T01:12:59;67.68;;;4.15;;
29026;SDS011;16120;48.608;9.092;2022-12-29T01:16:54;66.57;;;3.90;;
29026;SDS011;16120;48.608;9.092;2022-12-29T01:20:50;63.40;;;3.30;;
29026;SDS011;16120;48.608;9.092;2022-12-29T01:24:45;64.60;;;3.70;;
29026;SDS011;16120;48.608;9.092;2022-12-29T01:28:42;65.20;;;3.67;;
29026;SDS011;16120;48.608;9.092;2022-12-29T01:32:37;69.50;;;3.93;;
29026;SDS011;16120;48.608;9.092;2022-12-29T01:36:33;68.33;;;3.60;;
29026;SDS011;16120;48.608;9.092;2022-12-29T01:40:28;69.73;;;3.70;;
29026;SDS011;16120;48.608;9.092;2022-12-29T01:48:39;65.10;;;3.40;;
29026;SDS011;16120;48.608;9.092;2022-12-29T01:52:34;65.30;;;3.40;;
29026;SDS011;16120;48.608;9.092;2022-12-29T01:56:30;65.07;;;3.20;;
29026;SDS011;16120;48.608;9.092;2022-12-29T02:00:25;65.93;;;3.45;;
29026;SDS011;16120;48.608;9.092;2022-12-29T02:04:21;65.90;;;3.65;;
29026;SDS011;16120;48.608;9.092;2022-12-29T02:08:18;64.57;;;3.60;;
29026;SDS011;16120;48.608;9.092;2022-12-29T02:12:14;66.27;;;3.30;;
29026;SDS011;16120;48.608;9.092;2022-12-29T02:16:13;67.97;;;3.40;;
29026;SDS011;16120;48.608;9.092;2022-12-29T02:20:16;65.93;;;3.40;;
29026;SDS011;16120;48.608;9.092;2022-12-29T02:24:34;67.67;;;3.20;;
29026;SDS011;16120;48.608;9.092;2022-12-29T02:32:51;67.00;;;3.60;;
29026;SDS011;16120;48.608;9.092;2022-12-29T02:36:51;65.87;;;3.60;;
29026;SDS011;16120;48.608;9.092;2022-12-29T02:40:52;64.97;;;3.30;;
29026;SDS011;16120;48.608;9.092;2022-12-29T02:44:51;64.67;;;3.23;;
29026;SDS011;16120;48.608;9.092;2022-12-29T02:48:52;64.57;;;3.30;;
29026;SDS011;16120;48.608;9.092;2022-12-29T02:52:50;65.53;;;3.50;;
29026;SDS011;16120;48.608;9.092;2022-12-29T02:56:45;66.07;;;3.47;;
29026;SDS011;16120;48.608;9.092;2022-12-29T03:00:42;68.63;;;3.67;;
29026;SDS011;16120;48.608;9.092;2022-12-29T03:04:41;64.67;;;3.20;;
29026;SDS011;16120;48.608;9.092;2022-12-29T03:08:40;67.40;;;3.40;;
29026;SDS011;16120;48.608;9.092;2022-12-29T03:12:41;67.17;;;3.50;;
29026;SDS011;16120;48.608;9.092;2022-12-29T03:16:41;65.27;;;3.53;;
29026;SDS011;16120;48.608;9.092;2022-12-29T03:20:41;65.90;;;3.67;;
29026;SDS011;16120;48.608;9.092;2022-12-29T03:24:38;65.83;;;3.40;;
29026;SDS011;16120;48.608;9.092;2022-12-29T03:28:36;64.80;;;3.30;;
29026;SDS011;16120;48.608;9.092;2022-12-29T03:32:33;67.40;;;3.20;;
29026;SDS011;16120;48.608;9.092;2022-12-29T03:36:32;66.80;;;3.80;;
29026;SDS011;16120;48.608;9.092;2022-12-29T03:40:30;66.47;;;3.80;;
29026;SDS011;16120;48.608;9.092;2022-12-29T03:44:31;65.77;;;3.27;;
29026;SDS011;16120;48.608;9.092;2022-12-29T03:48:26;65.97;;;3.40;;
29026;SDS011;16120;48.608;9.092;2022-12-29T03:52:23;65.30;;;3.40;;
29026;SDS011;16120;48.608;9.092;2022-12-29T03:56:18;67.97;;;3.10;;
29026;SDS011;16120;48.608;9.092;2022-12-29T04:00:13;66.07;;;3.23;;
29026;SDS011;16120;48.608;9.092;2022-12-29T04:04:09;67.90;;;4.07;;
29026;SDS011;16120;48.608;9.092;2022-12-29T04:08:05;66.03;;;3.10;;
29026;SDS011;16120;48.608;9.092;2022-12-29T04:12:00;64.77;;;2.93;;
29026;SDS011;16120;48.608;9.092;2022-12-29T04:15:56;66.27;;;3.40;;
29026;SDS011;16120;48.608;9.092;2022-12-29T04:19:51;64.50;;;3.03;;
29026;SDS011;16120;48.608;9.092;2022-12-29T04:23:47;71.93;;;3.73;;
29026;SDS011;16120;48.608;9.092;2022-12-29T04:27:43;64.77;;;3.17;;
29026;SDS011;16120;48.608;9.092;2022-12-29T04:31:38;64.70;;;3.23;;
29026;SDS011;16120;48.608;9.092;2022-12-29T04:35:33;65.80;;;3.70;;
29026;SDS011;16120;48.608;9.092;2022-12-29T04:39:30;65.85;;;3.25;;
29026;SDS011;16120;48.608;9.092;2022-12-29T04:43:25;67.27;;;3.37;;
29026;SDS011;16120;48.608;9.092;2022-12-29T04:47:20;65.10;;;3.40;;
29026;SDS011;16120;48.608;9.092;2022-12-29T04:51:15;66.17;;;3.43;;
29026;SDS011;16120;48.608;9.092;2022-12-29T04:55:12;66.00;;;3.42;;
29026;SDS011;16120;48.608;9.092;2022-12-29T04:59:07;71.37;;;4.07;;
29026;SDS011;16120;48.608;9.092;2022-12-29T05:03:02;67.03;;;3.60;;
29026;SDS011;16120;48.608;9.092;2022-12-29T05:06:57;67.20;;;3.43;;
29026;SDS011;16120;48.608;9.092;2022-12-29T05:10:54;66.87;;;3.50;;
29026;SDS011;16120;48.608;9.092;2022-12-29T05:14:49;64.60;;;3.20;;
29026;SDS011;16120;48.608;9.092;2022-12-29T05:18:44;64.60;;;3.23;;
29026;SDS011;16120;48.608;9.092;2022-12-29T05:22:40;65.43;;;3.37;;
29026;SDS011;16120;48.608;9.092;2022-12-29T05:26:36;66.90;;;3.40;;
29026;SDS011;16120;48.608;9.092;2022-12-29T05:30:31;67.57;;;3.40;;
29026;SDS011;16120;48.608;9.092;2022-12-29T05:34:26;64.77;;;3.20;;
29026;SDS011;16120;48.608;9.092;2022-12-29T05:38:22;65.87;;;3.50;;
29026;SDS011;16120;48.608;9.092;2022-12-29T05:42:18;72.23;;;3.57;;
29026;SDS011;16120;48.608;9.092;2022-12-29T05:46:13;66.87;;;3.43;;
29026;SDS011;16120;48.608;9.092;2022-12-29T05:50:09;65.90;;;3.30;;
29026;SDS011;16120;48.608;9.092;2022-12-29T05:54:04;64.60;;;3.47;;
29026;SDS011;16120;48.608;9.092;2022-12-29T05:58:00;70.97;;;3.60;;
29026;SDS011;16120;48.608;9.092;2022-12-29T06:01:56;64.73;;;3.17;;
29026;SDS011;16120;48.608;9.092;2022-12-29T06:05:51;65.23;;;3.47;;
29026;SDS011;16120;48.608;9.092;2022-12-29T06:09:46;67.00;;;3.37;;
29026;SDS011;16120;48.608;9.092;2022-12-29T06:13:43;64.77;;;3.20;;
29026;SDS011;16120;48.608;9.092;2022-12-29T06:17:38;64.27;;;3.07;;
29026;SDS011;16120;48.608;9.092;2022-12-29T06:21:33;66.45;;;3.35;;
29026;SDS011;16120;48.608;9.092;2022-12-29T06:25:28;67.60;;;3.70;;
29026;SDS011;16120;48.608;9.092;2022-12-29T06:29:25;65.77;;;3.50;;
29026;SDS011;16120;48.608;9.092;2022-12-29T06:33:20;66.07;;;3.37;;
29026;SDS011;16120;48.608;9.092;2022-12-29T06:37:15;64.77;;;3.40;;
29026;SDS011;16120;48.608;9.092;2022-12-29T06:41:10;68.20;;;3.40;;
29026;SDS011;16120;48.608;9.092;2022-12-29T06:45:07;64.90;;;3.40;;
29026;SDS011;16120;48.608;9.092;2022-12-29T06:49:02;65.90;;;3.60;;
29026;SDS011;16120;48.608;9.092;2022-12-29T06:52:58;65.10;;;3.40;;
29026;SDS011;16120;48.608;9.092;2022-12-29T06:56:53;64.60;;;3.17;;
29026;SDS011;16120;48.608;9.092;2022-12-29T07:00:50;64.85;;;3.30;;
29026;SDS011;16120;48.608;9.092;2022-12-29T07:04:45;66.83;;;3.80;;
29026;SDS011;16120;48.608;9.092;2022-12-29T07:08:40;65.50;;;3.40;;
29026;SDS011;16120;48.608;9.092;2022-12-29T07:12:35;66.20;;;3.30;;
29026;SDS011;16120;48.608;9.092;2022-12-29T07:16:32;67.00;;;3.20;;
29026;SDS011;16120;48.608;9.092;2022-12-29T07:20:27;68.43;;;3.10;;
29026;SDS011;16120;48.608;9.092;2022-12-29T07:24:22;66.30;;;3.27;;
29026;SDS011;16120;48.608;9.092;2022-12-29T07:28:18;67.10;;;3.40;;
29026;SDS011;16120;48.608;9.092;2022-12-29T07:32:14;67.00;;;3.57;;
29026;SDS011;16120;48.608;9.092;2022-12-29T07:36:10;65.80;;;3.20;;
29026;SDS011;16120;48.608;9.092;2022-12-29T07:40:05;66.57;;;3.50;;
29026;SDS011;16120;48.608;9.092;2022-12-29T07:44:01;65.27;;;3.40;;
29026;SDS011;16120;48.608;9.092;2022-12-29T07:47:57;65.80;;;3.30;;
29026;SDS011;16120;48.608;9.092;2022-12-29T07:51:52;65.37;;;3.10;;
29026;SDS011;16120;48.608;9.092;2022-12-29T07:55:48;67.65;;;3.60;;
29026;SDS011;16120;48.608;9.092;2022-12-29T07:59:43;69.67;;;3.73;;
29026;SDS011;16120;48.608;9.092;2022-12-29T08:03:39;67.17;;;3.60;;
29026;SDS011;16120;48.608;9.092;2022-12-29T08:07:37;66.20;;;3.50;;
29026;SDS011;16120;48.608;9.092;2022-12-29T08:11:33;65.17;;;3.23;;
29026;SDS011;16120;48.608;9.092;2022-12-29T08:15:28;65.60;;;3.53;;
29026;SDS011;16120;48.608;9.092;2022-12-29T08:19:24;66.27;;;3.60;;
29026;SDS011;16120;48.608;9.092;2022-12-29T08:23:20;65.10;;;3.30;;
29026;SDS011;16120;48.608;9.092;2022-12-29T08:27:15;71.93;;;3.63;;
29026;SDS011;16120;48.608;9.092;2022-12-29T08:31:10;65.20;;;3.27;;
29026;SDS011;16120;48.608;9.092;2022-12-29T08:35:10;65.50;;;3.40;;
29026;SDS011;16120;48.608;9.092;2022-12-29T08:39:05;68.20;;;3.60;;
29026;SDS011;16120;48.608;9.092;2022-12-29T08:43:00;65.93;;;3.35;;
29026;SDS011;16120;48.608;9.092;2022-12-29T08:46:55;65.70;;;3.30;;
29026;SDS011;16120;48.608;9.092;2022-12-29T08:50:52;65.90;;;3.13;;
29026;SDS011;16120;48.608;9.092;2022-12-29T08:54:47;69.23;;;4.70;;
29026;SDS011;16120;48.608;9.092;2022-12-29T08:58:42;66.17;;;3.30;;
29026;SDS011;16120;48.608;9.092;2022-12-29T09:02:38;65.93;;;3.50;;
29026;SDS011;16120;48.608;9.092;2022-12-29T09:06:34;64.77;;;3.30;;
29026;SDS011;16120;48.608;9.092;2022-12-29T09:10:30;65.27;;;3.13;;
29026;SDS011;16120;48.608;9.092;2022-12-29T09:14:25;66.77;;;3.57;;
29026;SDS011;16120;48.608;9.092;2022-12-29T09:18:20;65.80;;;3.37;;
29026;SDS011;16120;48.608;9.092;2022-12-29T09:22:17;67.60;;;3.50;;
29026;SDS011;16120;48.608;9.092;2022-12-29T09:26:12;66.33;;;3.33;;
29026;SDS011;16120;48.608;9.092;2022-12-29T09:30:08;67.67;;;3.50;;
29026;SDS011;16120;48.608;9.092;2022-12-29T09:34:03;65.33;;;3.17;;
29026;SDS011;16120;48.608;9.092;2022-12-29T09:38:00;65.40;;;3.43;;
29026;SDS011;16120;48.608;9.092;2022-12-29T09:41:58;67.43;;;3.77;;
29026;SDS011;16120;48.608;9.092;2022-12-29T09:45:58;67.70;;;3.90;;
29026;SDS011;16120;48.608;9.092;2022-12-29T09:50:02;66.57;;;3.40;;
29026;SDS011;16120;48.608;9.092;2022-12-29T09:54:00;65.60;;;3.53;;
29026;SDS011;16120;48.608;9.092;2022-12-29T09:57:59;65.17;;;3.13;;
29026;SDS011;16120;48.608;9.092;2022-12-29T10:01:59;66.77;;;3.07;;
29026;SDS011;16120;48.608;9.092;2022-12-29T10:06:01;66.63;;;3.60;;
29026;SDS011;16120;48.608;9.092;2022-12-29T10:10:03;65.07;;;3.10;;
29026;SDS011;16120;48.608;9.092;2022-12-29T10:14:04;68.47;;;3.43;;
29026;SDS011;16120;48.608;9.092;2022-12-29T10:18:04;64.87;;;3.37;;
29026;SDS011;16120;48.608;9.092;2022-12-29T10:22:07;68.57;;;3.60;;
29026;SDS011;16120;48.608;9.092;2022-12-29T10:26:07;67.30;;;3.80;;
29026;SDS011;16120;48.608;9.092;2022-12-29T10:30:04;71.30;;;3.60;;
29026;SDS011;16120;48.608;9.092;2022-12-29T10:34:01;66.73;;;3.40;;
29026;SDS011;16120;48.608;9.092;2022-12-29T10:37:58;67.50;;;3.47;;
29026;SDS011;16120;48.608;9.092;2022-12-29T10:41:59;64.70;;;3.10;;
29026;SDS011;16120;48.608;9.092;2022-12-29T10:45:59;66.00;;;3.50;;
29026;SDS011;16120;48.608;9.092;2022-12-29T10:49:56;74.73;;;3.80;;
29026;SDS011;16120;48.608;9.092;2022-12-29T10:53:53;65.60;;;3.30;;
29026;SDS011;16120;48.608;9.092;2022-12-29T10:57:51;68.17;;;3.80;;
29026;SDS011;16120;48.608;9.092;2022-12-29T11:01:49;65.33;;;3.30;;
29026;SDS011;16120;48.608;9.092;2022-12-29T11:05:49;68.77;;;3.37;;
29026;SDS011;16120;48.608;9.092;2022-12-29T11:09:47;65.40;;;3.17;;
29026;SDS011;16120;48.608;9.092;2022-12-29T11:13:48;67.37;;;3.80;;
29026;SDS011;16120;48.608;9.092;2022-12-29T11:17:44;65.37;;;3.00;;
29026;SDS011;16120;48.608;9.092;2022-12-29T11:21:39;66.87;;;3.07;;
29026;SDS011;16120;48.608;9.092;2022-12-29T11:25:34;67.13;;;3.53;;
29026;SDS011;16120;48.608;9.092;2022-12-29T11:29:36;67.30;;;3.23;;
29026;SDS011;16120;48.608;9.092;2022-12-29T11:33:32;64.60;;;3.00;;
29026;SDS011;16120;48.608;9.092;2022-12-29T11:37:28;66.27;;;3.80;;
29026;SDS011;16120;48.608;9.092;2022-12-29T11:41:24;66.67;;;3.50;;
29026;SDS011;16120;48.608;9.092;2022-12-29T11:45:22;67.27;;;3.40;;
29026;SDS011;16120;48.608;9.092;2022-12-29T11:49:19;65.47;;;3.40;;
29026;SDS011;16120;48.608;9.092;2022-12-29T11:53:15;71.57;;;3.93;;
29026;SDS011;16120;48.608;9.092;2022-12-29T11:57:12;67.20;;;3.60;;
29026;SDS011;16120;48.608;9.092;2022-12-29T12:01:13;66.47;;;3.20;;
29026;SDS011;16120;48.608;9.092;2022-12-29T12:05:13;67.17;;;3.80;;
29026;SDS011;16120;48.608;9.092;2022-12-29T12:09:14;66.70;;;3.73;;
29026;SDS011;16120;48.608;9.092;2022-12-29T12:13:15;66.10;;;3.40;;
29026;SDS011;16120;48.608;9.092;2022-12-29T12:17:14;67.40;;;3.40;;
29026;SDS011;16120;48.608;9.092;2022-12-29T12:21:23;66.20;;;3.60;;
29026;SDS011;16120;48.608;9.092;2022-12-29T12:25:20;68.57;;;3.67;;
29026;SDS011;16120;48.608;9.092;2022-12-29T12:29:19;68.00;;;4.00;;
29026;SDS011;16120;48.608;9.092;2022-12-29T12:33:18;67.00;;;3.83;;
29026;SDS011;16120;48.608;9.092;2022-12-29T12:37:27;65.50;;;3.67;;
29026;SDS011;16120;48.608;9.092;2022-12-29T12:41:28;72.37;;;4.90;;
29026;SDS011;16120;48.608;9.092;2022-12-29T12:45:27;65.53;;;3.50;;
29026;SDS011;16120;48.608;9.092;2022-12-29T12:49:44;69.27;;;3.77;;
29026;SDS011;16120;48.608;9.092;2022-12-29T12:53:49;66.07;;;3.20;;
29026;SDS011;16120;48.608;9.092;2022-12-29T12:57:50;67.33;;;3.70;;
29026;SDS011;16120;48.608;9.092;2022-12-29T13:01:50;65.87;;;3.80;;
29026;SDS011;16120;48.608;9.092;2022-12-29T13:05:54;70.83;;;3.60;;
29026;SDS011;16120;48.608;9.092;2022-12-29T13:10:01;66.67;;;3.37;;
29026;SDS011;16120;48.608;9.092;2022-12-29T13:14:04;66.97;;;3.73;;
29026;SDS011;16120;48.608;9.092;2022-12-29T13:18:04;66.93;;;3.50;;
29026;SDS011;16120;48.608;9.092;2022-12-29T13:22:13;70.07;;;3.50;;
29026;SDS011;16120;48.608;9.092;2022-12-29T13:26:14;69.47;;;3.73;;
29026;SDS011;16120;48.608;9.092;2022-12-29T13:30:10;69.57;;;3.87;;
29026;SDS011;16120;48.608;9.092;2022-12-29T13:34:28;66.77;;;3.30;;
29026;SDS011;16120;48.608;9.092;2022-12-29T13:42:39;67.00;;;3.90;;
29026;SDS011;16120;48.608;9.092;2022-12-29T13:46:53;67.90;;;4.07;;
29026;SDS011;16120;48.608;9.092;2022-12-29T13:50:51;67.40;;;4.10;;
29026;SDS011;16120;48.608;9.092;2022-12-29T13:54:51;68.53;;;3.77;;
29026;SDS011;16120;48.608;9.092;2022-12-29T13:58:53;67.70;;;4.27;;
29026;SDS011;16120;48.608;9.092;2022-12-29T14:03:00;68.50;;;3.93;;
29026;SDS011;16120;48.608;9.092;2022-12-29T14:06:59;69.57;;;4.03;;
29026;SDS011;16120;48.608;9.092;2022-12-29T14:10:55;67.10;;;4.00;;
29026;SDS011;16120;48.608;9.092;2022-12-29T14:14:52;69.50;;;3.90;;
29026;SDS011;16120;48.608;9.092;2022-12-29T14:18:47;66.57;;;3.60;;
29026;SDS011;16120;48.608;9.092;2022-12-29T14:23:15;66.10;;;3.60;;
29026;SDS011;16120;48.608;9.092;2022-12-29T14:31:34;66.70;;;3.57;;
29026;SDS011;16120;48.608;9.092;2022-12-29T14:35:40;67.23;;;3.50;;
29026;SDS011;16120;48.608;9.092;2022-12-29T14:39:36;66.67;;;3.47;;
29026;SDS011;16120;48.608;9.092;2022-12-29T14:43:32;67.40;;;3.90;;
29026;SDS011;16120;48.608;9.092;2022-12-29T14:47:31;66.47;;;3.73;;
29026;SDS011;16120;48.608;9.092;2022-12-29T14:51:28;67.27;;;3.77;;
29026;SDS011;16120;48.608;9.092;2022-12-29T14:55:37;65.27;;;3.53;;
29026;SDS011;16120;48.608;9.092;2022-12-29T14:59:33;66.97;;;3.87;;
29026;SDS011;16120;48.608;9.092;2022-12-29T15:03:31;65.70;;;3.77;;
29026;SDS011;16120;48.608;9.092;2022-12-29T15:07:27;66.60;;;3.27;;
29026;SDS011;16120;48.608;9.092;2022-12-29T15:11:24;65.87;;;3.63;;
29026;SDS011;16120;48.608;9.092;2022-12-29T15:15:26;65.33;;;3.43;;
29026;SDS011;16120;48.608;9.092;2022-12-29T15:19:23;66.60;;;3.60;;
29026;SDS011;16120;48.608;9.092;2022-12-29T15:23:18;67.63;;;3.50;;
29026;SDS011;16120;48.608;9.092;2022-12-29T15:27:19;63.97;;;2.97;;
29026;SDS011;16120;48.608;9.092;2022-12-29T15:31:15;65.27;;;3.00;;
29026;SDS011;16120;48.608;9.092;2022-12-29T15:35:27;66.90;;;3.57;;
29026;SDS011;16120;48.608;9.092;2022-12-29T15:39:29;66.17;;;3.93;;
29026;SDS011;16120;48.608;9.092;2022-12-29T15:43:33;65.27;;;3.30;;
29026;SDS011;16120;48.608;9.092;2022-12-29T15:47:31;74.70;;;3.23;;
29026;SDS011;16120;48.608;9.092;2022-12-29T15:51:33;66.37;;;3.60;;
29026;SDS011;16120;48.608;9.092;2022-12-29T15:55:30;65.90;;;3.57;;
29026;SDS011;16120;48.608;9.092;2022-12-29T15:59:29;64.50;;;2.93;;
29026;SDS011;16120;48.608;9.092;2022-12-29T16:03:25;67.90;;;3.20;;
29026;SDS011;16120;48.608;9.092;2022-12-29T16:07:27;71.07;;;4.00;;
29026;SDS011;16120;48.608;9.092;2022-12-29T16:11:23;65.33;;;3.23;;
29026;SDS011;16120;48.608;9.092;2022-12-29T16:15:25;66.80;;;3.40;;
29026;SDS011;16120;48.608;9.092;2022-12-29T16:19:21;69.00;;;3.43;;
29026;SDS011;16120;48.608;9.092;2022-12-29T16:23:23;65.27;;;3.10;;
29026;SDS011;16120;48.608;9.092;2022-12-29T16:27:22;65.13;;;3.47;;
29026;SDS011;16120;48.608;9.092;2022-12-29T16:31:21;65.40;;;3.30;;
29026;SDS011;16120;48.608;9.092;2022-12-29T16:35:17;66.13;;;3.93;;
29026;SDS011;16120;48.608;9.092;2022-12-29T16:39:23;67.07;;;3.87;;
29026;SDS011;16120;48.608;9.092;2022-12-29T16:43:20;66.70;;;3.60;;
29026;SDS011;16120;48.608;9.092;2022-12-29T16:47:19;68.70;;;3.60;;
29026;SDS011;16120;48.608;9.092;2022-12-29T16:51:21;67.27;;;3.53;;
29026;SDS011;16120;48.608;9.092;2022-12-29T16:55:19;66.63;;;3.40;;
29026;SDS011;16120;48.608;9.092;2022-12-29T16:59:19;67.87;;;3.43;;
29026;SDS011;16120;48.608;9.092;2022-12-29T17:03:16;65.10;;;3.40;;
29026;SDS011;16120;48.608;9.092;2022-12-29T17:07:13;66.90;;;3.80;;
29026;SDS011;16120;48.608;9.092;2022-12-29T17:11:17;67.70;;;3.40;;
29026;SDS011;16120;48.608;9.092;2022-12-29T17:15:14;65.13;;;3.87;;
29026;SDS011;16120;48.608;9.092;2022-12-29T17:19:11;67.47;;;3.80;;
29026;SDS011;16120;48.608;9.092;2022-12-29T17:23:11;65.50;;;3.80;;
29026;SDS011;16120;48.608;9.092;2022-12-29T17:27:10;65.87;;;3.80;;
29026;SDS011;16120;48.608;9.092;2022-12-29T17:31:11;65.43;;;3.73;;
29026;SDS011;16120;48.608;9.092;2022-12-29T17:35:12;66.00;;;3.30;;
29026;SDS011;16120;48.608;9.092;2022-12-29T17:39:07;67.80;;;3.30;;
29026;SDS011;16120;48.608;9.092;2022-12-29T17:43:04;67.03;;;3.43;;
29026;SDS011;16120;48.608;9.092;2022-12-29T17:46:59;67.27;;;3.90;;
29026;SDS011;16120;48.608;9.092;2022-12-29T17:50:55;68.17;;;4.20;;
29026;SDS011;16120;48.608;9.092;2022-12-29T17:54:51;70.20;;;4.67;;
29026;SDS011;16120;48.608;9.092;2022-12-29T17:58:48;67.47;;;3.80;;
29026;SDS011;16120;48.608;9.092;2022-12-29T18:02:44;67.50;;;4.13;;
29026;SDS011;16120;48.608;9.092;2022-12-29T18:06:39;69.10;;;4.30;;
29026;SDS011;16120;48.608;9.092;2022-12-29T18:10:34;67.90;;;4.50;;
29026;SDS011;16120;48.608;9.092;2022-12-29T18:14:31;65.60;;;3.33;;
29026;SDS011;16120;48.608;9.092;2022-12-29T18:18:26;65.30;;;3.40;;
29026;SDS011;16120;48.608;9.092;2022-12-29T18:22:22;68.23;;;3.70;;
29026;SDS011;16120;48.608;9.092;2022-12-29T18:26:18;65.97;;;3.80;;
29026;SDS011;16120;48.608;9.092;2022-12-29T18:30:16;66.77;;;3.60;;
29026;SDS011;16120;48.608;9.092;2022-12-29T18:34:13;64.80;;;2.93;;
29026;SDS011;16120;48.608;9.092;2022-12-29T18:38:10;66.60;;;3.93;;
29026;SDS011;16120;48.608;9.092;2022-12-29T18:42:05;66.87;;;4.10;;
29026;SDS011;16120;48.608;9.092;2022-12-29T18:46:02;68.67;;;5.33;;
29026;SDS011;16120;48.608;9.092;2022-12-29T18:49:57;70.60;;;5.07;;
29026;SDS011;16120;48.608;9.092;2022-12-29T18:53:52;70.23;;;5.70;;
29026;SDS011;16120;48.608;9.092;2022-12-29T18:57:48;71.63;;;5.77;;
29026;SDS011;16120;48.608;9.092;2022-12-29T19:01:45;68.70;;;5.23;;
29026;SDS011;16120;48.608;9.092;2022-12-29T19:05:40;69.47;;;5.70;;
29026;SDS011;16120;48.608;9.092;2022-12-29T19:09:36;67.30;;;5.10;;
29026;SDS011;16120;48.608;9.092;2022-12-29T19:13:31;66.85;;;4.15;;
29026;SDS011;16120;48.608;9.092;2022-12-29T19:17:28;68.53;;;4.07;;
29026;SDS011;16120;48.608;9.092;2022-12-29T19:21:23;66.60;;;4.03;;
29026;SDS011;16120;48.608;9.092;2022-12-29T19:25:18;66.67;;;3.97;;
29026;SDS011;16120;48.608;9.092;2022-12-29T19:29:13;66.03;;;3.70;;
29026;SDS011;16120;48.608;9.092;2022-12-29T19:33:10;66.47;;;3.77;;
29026;SDS011;16120;48.608;9.092;2022-12-29T19:37:05;65.50;;;3.50;;
29026;SDS011;16120;48.608;9.092;2022-12-29T19:41:01;67.07;;;3.10;;
29026;SDS011;16120;48.608;9.092;2022-12-29T19:45:00;65.43;;;2.90;;
29026;SDS011;16120;48.608;9.092;2022-12-29T19:48:57;67.47;;;2.97;;
29026;SDS011;16120;48.608;9.092;2022-12-29T19:52:53;65.40;;;3.17;;
29026;SDS011;16120;48.608;9.092;2022-12-29T19:56:49;66.07;;;3.43;;
29026;SDS011;16120;48.608;9.092;2022-12-29T20:00:45;69.23;;;2.90;;
29026;SDS011;16120;48.608;9.092;2022-12-29T20:04:42;65.63;;;2.93;;
29026;SDS011;16120;48.608;9.092;2022-12-29T20:08:37;68.83;;;4.30;;
29026;SDS011;16120;48.608;9.092;2022-12-29T20:12:33;64.97;;;2.87;;
29026;SDS011;16120;48.608;9.092;2022-12-29T20:16:38;65.10;;;2.90;;
29026;SDS011;16120;48.608;9.092;2022-12-29T20:29:10;67.20;;;2.50;;
29026;SDS011;16120;48.608;9.092;2022-12-29T20:33:06;64.60;;;2.60;;
29026;SDS011;16120;48.608;9.092;2022-12-29T20:37:06;66.37;;;2.70;;
29026;SDS011;16120;48.608;9.092;2022-12-29T20:41:02;64.60;;;2.50;;
29026;SDS011;16120;48.608;9.092;2022-12-29T20:44:59;66.37;;;2.50;;
29026;SDS011;16120;48.608;9.092;2022-12-29T20:48:54;64.37;;;2.30;;
29026;SDS011;16120;48.608;9.092;2022-12-29T20:52:50;64.67;;;2.60;;
29026;SDS011;16120;48.608;9.092;2022-12-29T20:56:50;65.30;;;2.53;;
29026;SDS011;16120;48.608;9.092;2022-12-29T21:01:00;66.40;;;2.43;;
29026;SDS011;16120;48.608;9.092;2022-12-29T21:05:08;63.97;;;2.30;;
29026;SDS011;16120;48.608;9.092;2022-12-29T21:09:08;64.63;;;2.40;;
29026;SDS011;16120;48.608;9.092;2022-12-29T21:13:03;64.10;;;2.43;;
29026;SDS011;16120;48.608;9.092;2022-12-29T21:17:08;64.73;;;2.30;;
29026;SDS011;16120;48.608;9.092;2022-12-29T21:21:04;64.20;;;2.27;;
29026;SDS011;16120;48.608;9.092;2022-12-29T21:24:59;64.20;;;2.23;;
29026;SDS011;16120;48.608;9.092;2022-12-29T21:28:55;64.78;;;2.45;;
29026;SDS011;16120;48.608;9.092;2022-12-29T21:37:10;64.40;;;2.50;;
29026;SDS011;16120;48.608;9.092;2022-12-29T21:41:06;64.47;;;2.30;;
29026;SDS011;16120;48.608;9.092;2022-12-29T21:45:01;64.30;;;2.40;;
29026;SDS011;16120;48.608;9.092;2022-12-29T21:48:58;65.27;;;2.50;;
29026;SDS011;16120;48.608;9.092;2022-12-29T21:52:54;66.07;;;2.63;;
29026;SDS011;16120;48.608;9.092;2022-12-29T21:56:49;65.10;;;2.30;;
29026;SDS011;16120;48.608;9.092;2022-12-29T22:00:45;64.57;;;2.57;;
29026;SDS011;16120;48.608;9.092;2022-12-29T22:04:40;64.68;;;2.60;;
29026;SDS011;16120;48.608;9.092;2022-12-29T22:08:37;64.33;;;2.50;;
29026;SDS011;16120;48.608;9.092;2022-12-29T22:12:32;64.47;;;2.50;;
29026;SDS011;16120;48.608;9.092;2022-12-29T22:16:28;65.40;;;2.60;;
29026;SDS011;16120;48.608;9.092;2022-12-29T22:20:24;66.07;;;2.77;;
29026;SDS011;16120;48.608;9.092;2022-12-29T22:24:21;64.47;;;2.50;;
29026;SDS011;16120;48.608;9.092;2022-12-29T22:28:16;64.60;;;2.43;;
29026;SDS011;16120;48.608;9.092;2022-12-29T22:32:11;64.70;;;2.50;;
29026;SDS011;16120;48.608;9.092;2022-12-29T22:36:07;64.20;;;2.57;;
29026;SDS011;16120;48.608;9.092;2022-12-29T22:40:04;68.60;;;2.47;;
29026;SDS011;16120;48.608;9.092;2022-12-29T22:43:59;64.40;;;2.43;;
29026;SDS011;16120;48.608;9.092;2022-12-29T22:47:54;67.10;;;2.50;;
29026;SDS011;16120;48.608;9.092;2022-12-29T22:51:50;66.50;;;2.67;;
29026;SDS011;16120;48.608;9.092;2022-12-29T22:55:46;63.87;;;2.40;;
29026;SDS011;16120;48.608;9.092;2022-12-29T22:59:42;65.00;;;2.57;;
29026;SDS011;16120;48.608;9.092;2022-12-29T23:03:37;64.70;;;2.70;;
29026;SDS011;16120;48.608;9.092;2022-12-29T23:07:32;65.47;;;3.30;;
29026;SDS011;16120;48.608;9.092;2022-12-29T23:11:29;65.53;;;2.60;;
29026;SDS011;16120;48.608;9.092;2022-12-29T23:15:25;64.77;;;2.70;;
29026;SDS011;16120;48.608;9.092;2022-12-29T23:19:20;64.43;;;2.60;;
29026;SDS011;16120;48.608;9.092;2022-12-29T23:23:15;64.50;;;2.83;;
29026;SDS011;16120;48.608;9.092;2022-12-29T23:27:12;65.13;;;2.80;;
29026;SDS011;16120;48.608;9.092;2022-12-29T23:31:07;65.00;;;2.70;;
29026;SDS011;16120;48.608;9.092;2022-12-29T23:35:02;64.50;;;2.70;;
29026;SDS011;16120;48.608;9.092;2022-12-29T23:38:58;64.27;;;2.57;;
29026;SDS011;16120;48.608;9.092;2022-12-29T23:42:54;64.67;;;2.70;;
29026;SDS011;16120;48.608;9.092;2022-12-29T23:46:49;67.00;;;2.80;;
29026;SDS011;16120;48.608;9.092;2022-12-29T23:50:45;64.57;;;2.40;;
29026;SDS011;16120;48.608;9.092;2022-12-29T23:54:40;64.67;;;2.70;;
29026;SDS011;16120;48.608;9.092;2022-12-29T23:58:37;64.47;;;2.70;;
